Time;durP1;ratioP1;P1;durP2;ratioP2;P2;SDS_P1;SDS_P2;PMS_P1;PMS_P2;Temp;Humidity;BMP_temperature;BMP_pressure;BME280_temperature;BME280_humidity;BME280_pressure;Samples;Min_cycle;Max_cycle;Signal;HPM_P1;HPM_P2
2023/01/17 00:02:15;;;;;;;4.38;0.90;;;4.00;99.90;;;;;;5071035;28;20472;-48
2023/01/17 00:10:12;;;;;;;0.80;0.50;;;3.90;99.90;;;;;;5069185;28;20045;-48
2023/01/17 00:12:38;;;;;;;2.15;0.40;;;3.70;99.90;;;;;;5079518;28;20036;-47
2023/01/17 00:15:06;;;;;;;5.55;0.52;;;3.50;99.90;;;;;;5069845;28;20096;-49
2023/01/17 00:17:31;;;;;;;3.42;0.55;;;3.70;99.90;;;;;;5069565;28;20372;-47
2023/01/17 01:35:22;;;;;;;3.33;0.50;;;2.50;99.90;;;;;;5068808;28;20044;-48
2023/01/17 01:37:48;;;;;;;3.45;0.60;;;2.50;99.90;;;;;;5077189;28;20036;-51
2023/01/17 01:40:15;;;;;;;2.03;0.82;;;2.40;99.90;;;;;;5090473;28;20453;-49
2023/01/17 01:42:55;;;;;;;3.88;0.60;;;2.10;99.90;;;;;;5077662;28;20387;-48
2023/01/17 01:45:31;;;;;;;4.90;1.08;;;2.30;99.90;;;;;;5076476;28;20119;-47
2023/01/17 01:48:02;;;;;;;2.70;0.95;;;2.10;99.90;;;;;;5073112;28;20534;-48
2023/01/17 01:50:30;;;;;;;2.53;0.55;;;2.40;99.90;;;;;;5072671;28;20072;-48
2023/01/17 01:52:59;;;;;;;3.13;0.50;;;2.40;99.90;;;;;;5072907;28;20047;-46
2023/01/17 01:55:30;;;;;;;5.07;0.60;;;2.10;99.90;;;;;;5073031;28;20484;-47
2023/01/17 01:58:01;;;;;;;3.97;0.50;;;2.30;99.90;;;;;;5073141;28;20126;-47
2023/01/17 02:00:34;;;;;;;4.70;0.60;;;2.30;99.90;;;;;;5073448;28;20353;-48
2023/01/17 02:03:04;;;;;;;4.65;0.50;;;2.40;99.90;;;;;;5072746;28;20123;-47
2023/01/17 02:05:32;;;;;;;5.28;0.60;;;2.20;99.90;;;;;;5080689;28;20047;-49
2023/01/17 02:08:03;;;;;;;2.15;0.50;;;2.30;99.90;;;;;;5090819;28;20028;-48
2023/01/17 02:10:36;;;;;;;6.88;0.57;;;2.00;99.90;;;;;;5072578;28;20045;-47
2023/01/17 02:13:02;;;;;;;2.70;0.35;;;2.20;99.90;;;;;;5073212;28;20045;-47
2023/01/17 02:16:01;;;;;;;5.78;0.60;;;2.00;99.90;;;;;;5072778;28;20520;-48
2023/01/17 02:18:49;;;;;;;3.88;0.73;;;2.00;99.90;;;;;;5072032;28;20082;-48
2023/01/17 02:21:21;;;;;;;3.40;0.40;;;2.20;99.90;;;;;;5075164;28;20044;-47
2023/01/17 02:24:32;;;;;;;4.53;0.60;;;2.20;99.90;;;;;;5070971;28;20051;-50
2023/01/17 02:27:23;;;;;;;7.28;0.60;;;2.00;99.90;;;;;;5072541;28;20483;-46
2023/01/17 02:30:15;;;;;;;5.88;0.65;;;2.30;99.90;;;;;;5071844;28;20059;-48
2023/01/17 02:32:55;;;;;;;3.95;0.68;;;2.30;99.90;;;;;;5068557;28;20405;-48
2023/01/17 02:35:45;;;;;;;6.60;0.80;;;2.30;99.90;;;;;;5072737;28;20029;-47
2023/01/17 02:38:19;;;;;;;4.35;0.50;;;2.30;99.90;;;;;;5071878;28;20064;-48
2023/01/17 02:41:08;;;;;;;3.95;0.50;;;2.10;99.90;;;;;;5072254;28;20078;-48
2023/01/17 02:43:35;;;;;;;3.50;0.60;;;2.30;99.90;;;;;;5072148;28;20035;-49
2023/01/17 02:46:01;;;;;;;3.40;0.52;;;2.30;99.90;;;;;;5070463;28;20042;-49
2023/01/17 02:48:31;;;;;;;7.40;0.70;;;2.20;99.90;;;;;;5070918;28;20128;-47
2023/01/17 02:51:10;;;;;;;3.90;0.80;;;2.10;99.90;;;;;;5071870;28;20509;-47
2023/01/17 02:53:45;;;;;;;5.25;0.70;;;2.30;99.90;;;;;;5072269;28;20048;-48
2023/01/17 02:56:42;;;;;;;3.92;0.40;;;2.30;99.90;;;;;;5072322;28;20076;-47
2023/01/17 02:59:10;;;;;;;5.60;0.85;;;2.20;99.90;;;;;;5071572;28;20116;-52
2023/01/17 03:02:14;;;;;;;3.25;0.50;;;2.20;99.90;;;;;;5081832;28;20044;-48
2023/01/17 03:05:12;;;;;;;4.13;0.50;;;2.30;99.90;;;;;;5049127;28;20099;-49
2023/01/17 03:07:40;;;;;;;4.10;0.65;;;2.20;99.90;;;;;;5071573;28;20044;-50
2023/01/17 03:10:08;;;;;;;4.60;0.65;;;2.10;99.90;;;;;;5071554;28;20044;-47
2023/01/17 03:12:37;;;;;;;3.35;0.50;;;2.20;99.90;;;;;;5071807;28;20498;-50
2023/01/17 03:15:07;;;;;;;3.03;0.52;;;2.20;99.90;;;;;;5071696;28;20040;-50
2023/01/17 03:17:33;;;;;;;5.07;0.68;;;1.90;99.90;;;;;;5071970;28;20033;-49
2023/01/17 03:19:58;;;;;;;7.53;0.88;;;2.20;99.90;;;;;;5080897;28;20058;-50
2023/01/17 03:22:24;;;;;;;4.40;0.50;;;2.00;99.90;;;;;;5078750;28;20068;-50
2023/01/17 03:24:50;;;;;;;2.78;0.73;;;2.10;99.90;;;;;;5071304;28;20036;-48
2023/01/17 03:27:15;;;;;;;6.95;0.50;;;2.10;99.90;;;;;;5071443;28;20441;-47
2023/01/17 03:29:41;;;;;;;4.78;0.60;;;2.00;99.90;;;;;;5073831;28;20039;-47
2023/01/17 03:32:07;;;;;;;5.55;0.60;;;2.60;99.90;;;;;;5072339;28;20032;-48
2023/01/17 03:34:32;;;;;;;2.15;0.40;;;1.80;99.90;;;;;;5071604;28;20032;-49
2023/01/17 03:36:58;;;;;;;6.15;0.55;;;2.00;99.90;;;;;;5075193;28;20112;-47
2023/01/17 03:39:24;;;;;;;2.85;0.60;;;2.00;99.90;;;;;;5079002;28;20049;-48
2023/01/17 03:41:49;;;;;;;3.65;0.65;;;2.10;99.90;;;;;;5070993;28;20044;-45
2023/01/17 03:44:15;;;;;;;5.55;1.00;;;1.80;99.90;;;;;;5076879;28;20090;-50
2023/01/17 03:46:41;;;;;;;3.83;0.60;;;1.90;99.90;;;;;;5070787;28;20040;-47
2023/01/17 03:49:07;;;;;;;10.18;0.90;;;1.70;99.90;;;;;;5070573;28;20075;-49
2023/01/17 03:51:33;;;;;;;3.42;0.50;;;1.90;99.90;;;;;;5070906;28;20390;-46
2023/01/17 03:53:59;;;;;;;2.88;0.52;;;1.80;99.90;;;;;;5070985;28;20037;-48
2023/01/17 03:56:25;;;;;;;4.00;0.70;;;1.80;99.90;;;;;;5071126;28;20044;-49
2023/01/17 03:58:51;;;;;;;7.85;0.85;;;1.60;99.90;;;;;;5070885;28;20055;-49
2023/01/17 04:01:17;;;;;;;4.68;0.55;;;2.00;99.90;;;;;;5070835;28;20400;-48
2023/01/17 04:03:43;;;;;;;5.63;0.55;;;1.70;99.90;;;;;;5070751;28;20543;-48
2023/01/17 04:06:09;;;;;;;9.15;0.77;;;1.60;99.90;;;;;;5071932;28;20174;-50
2023/01/17 04:08:34;;;;;;;2.83;0.60;;;1.70;99.90;;;;;;5072433;28;20048;-46
2023/01/17 04:11:00;;;;;;;4.43;0.57;;;1.60;99.90;;;;;;5070961;28;20118;-48
2023/01/17 04:13:26;;;;;;;6.05;0.70;;;1.40;99.90;;;;;;5068935;28;20613;-50
2023/01/17 04:15:52;;;;;;;8.55;0.70;;;1.40;99.90;;;;;;5070801;28;20114;-49
2023/01/17 04:18:19;;;;;;;3.03;0.52;;;1.50;99.90;;;;;;5070568;28;20044;-48
2023/01/17 04:20:45;;;;;;;3.75;0.50;;;1.40;99.90;;;;;;5070562;28;20048;-47
2023/01/17 04:23:10;;;;;;;6.22;0.68;;;1.40;99.90;;;;;;5069544;28;20040;-47
2023/01/17 04:25:36;;;;;;;4.07;0.50;;;1.50;99.90;;;;;;5071956;28;20044;-48
2023/01/17 04:28:03;;;;;;;6.50;0.65;;;1.30;99.90;;;;;;5072806;28;20040;-47
2023/01/17 04:30:29;;;;;;;5.82;0.80;;;1.50;99.90;;;;;;5070826;28;20066;-49
2023/01/17 04:32:56;;;;;;;9.63;0.70;;;1.50;99.90;;;;;;5070393;28;20033;-47
2023/01/17 04:35:22;;;;;;;12.57;0.88;;;1.50;99.90;;;;;;5070623;28;20043;-50
2023/01/17 04:37:47;;;;;;;2.58;0.43;;;1.60;99.90;;;;;;5070376;28;20058;-48
2023/01/17 04:40:13;;;;;;;7.68;0.75;;;1.70;99.90;;;;;;5070161;28;20120;-48
2023/01/17 04:42:39;;;;;;;7.85;0.60;;;1.70;99.90;;;;;;5070175;28;20037;-50
2023/01/17 04:45:06;;;;;;;6.45;0.60;;;1.60;99.90;;;;;;5070545;28;20409;-47
2023/01/17 04:47:33;;;;;;;3.45;0.70;;;1.90;99.90;;;;;;5071069;28;20081;-48
2023/01/17 04:49:59;;;;;;;4.80;0.68;;;1.90;99.90;;;;;;5070060;28;20056;-51
2023/01/17 04:52:24;;;;;;;6.90;0.70;;;1.90;99.90;;;;;;5070182;28;20041;-49
2023/01/17 04:54:51;;;;;;;4.85;0.70;;;1.90;99.90;;;;;;5070721;28;20032;-47
2023/01/17 04:57:18;;;;;;;4.32;0.80;;;1.80;99.90;;;;;;5070770;28;20045;-47
2023/01/17 04:59:44;;;;;;;7.97;0.80;;;1.80;99.90;;;;;;5070413;28;20059;-50
2023/01/17 05:02:11;;;;;;;5.35;0.70;;;1.90;99.90;;;;;;5071023;28;20044;-46
2023/01/17 05:04:37;;;;;;;7.70;0.70;;;1.80;99.90;;;;;;5069651;28;20040;-49
2023/01/17 05:07:04;;;;;;;6.18;0.60;;;1.70;99.90;;;;;;5070196;28;20113;-49
2023/01/17 05:09:30;;;;;;;6.60;0.80;;;1.60;99.90;;;;;;5069867;28;20135;-47
2023/01/17 05:11:56;;;;;;;6.63;0.70;;;1.60;99.90;;;;;;5071933;28;20120;-52
2023/01/17 05:14:25;;;;;;;6.85;0.77;;;1.60;99.90;;;;;;5074309;28;20074;-47
2023/01/17 05:16:57;;;;;;;8.45;1.27;;;1.70;99.90;;;;;;5074756;28;20041;-49
2023/01/17 05:19:24;;;;;;;8.30;0.70;;;1.70;99.90;;;;;;5073202;28;20033;-49
2023/01/17 05:21:50;;;;;;;5.43;0.60;;;1.50;99.90;;;;;;5073702;28;20039;-48
2023/01/17 05:24:16;;;;;;;5.38;0.55;;;1.70;99.90;;;;;;5072866;28;20583;-50
2023/01/17 05:26:42;;;;;;;8.35;0.75;;;1.60;99.90;;;;;;5073757;28;20480;-46
2023/01/17 05:29:08;;;;;;;8.05;0.63;;;1.70;99.90;;;;;;5072612;28;20055;-49
2023/01/17 05:31:35;;;;;;;3.92;0.50;;;1.70;99.90;;;;;;5073809;28;20040;-50
2023/01/17 05:34:00;;;;;;;6.50;0.60;;;1.80;99.90;;;;;;5072387;28;20041;-48
2023/01/17 05:36:26;;;;;;;3.35;0.73;;;1.70;99.90;;;;;;5073273;28;20033;-49
2023/01/17 05:38:52;;;;;;;4.32;0.60;;;1.70;99.90;;;;;;5073800;28;20114;-50
2023/01/17 05:41:17;;;;;;;6.13;0.73;;;1.60;99.90;;;;;;5073437;28;20064;-51
2023/01/17 05:43:43;;;;;;;4.07;0.75;;;1.70;99.90;;;;;;5073576;28;20078;-49
2023/01/17 05:46:09;;;;;;;4.32;0.93;;;1.90;99.90;;;;;;5076759;28;20083;-47
2023/01/17 05:48:34;;;;;;;2.90;0.55;;;1.60;99.90;;;;;;5072194;28;20061;-48
2023/01/17 05:51:00;;;;;;;4.70;0.50;;;1.60;99.90;;;;;;5073118;28;20040;-47
2023/01/17 05:53:26;;;;;;;11.90;0.85;;;1.60;99.90;;;;;;5072414;28;20040;-49
2023/01/17 05:55:52;;;;;;;4.63;0.68;;;1.50;99.90;;;;;;5079176;28;20581;-47
2023/01/17 05:58:20;;;;;;;5.63;0.70;;;1.50;99.90;;;;;;5073309;28;20032;-47
2023/01/17 06:00:47;;;;;;;5.35;0.70;;;1.60;99.90;;;;;;5073211;28;20480;-46
2023/01/17 06:03:14;;;;;;;6.80;0.85;;;1.50;99.90;;;;;;5072829;28;20089;-50
2023/01/17 06:05:40;;;;;;;7.60;0.75;;;1.50;99.90;;;;;;5071235;28;20438;-46
2023/01/17 06:08:06;;;;;;;5.55;0.70;;;1.80;99.90;;;;;;5073563;28;20043;-46
2023/01/17 06:10:32;;;;;;;3.22;0.60;;;1.40;99.90;;;;;;5073140;28;20138;-46
2023/01/17 06:13:11;;;;;;;2.72;0.60;;;1.60;99.90;;;;;;5072833;28;20036;-46
2023/01/17 06:15:38;;;;;;;3.95;0.63;;;1.50;99.90;;;;;;5072679;28;20036;-49
2023/01/17 06:18:08;;;;;;;3.47;1.08;;;1.30;99.90;;;;;;5071771;28;20082;-46
2023/01/17 06:20:34;;;;;;;4.32;0.70;;;1.40;99.90;;;;;;5072195;28;20036;-48
2023/01/17 06:23:03;;;;;;;6.10;0.77;;;1.40;99.90;;;;;;5071563;28;20405;-47
2023/01/17 06:25:39;;;;;;;3.40;0.60;;;1.20;99.90;;;;;;5072469;28;20098;-46
2023/01/17 06:28:06;;;;;;;4.60;0.90;;;1.30;99.90;;;;;;5074443;28;20043;-46
2023/01/17 06:30:32;;;;;;;4.60;0.80;;;1.30;99.90;;;;;;5073058;28;20033;-55
2023/01/17 06:32:58;;;;;;;5.97;0.90;;;1.10;99.90;;;;;;5073312;28;20024;-47
2023/01/17 06:35:24;;;;;;;7.00;0.75;;;1.00;99.90;;;;;;5072617;28;20025;-47
2023/01/17 06:37:54;;;;;;;7.53;0.68;;;1.20;99.90;;;;;;5079149;28;20472;-46
2023/01/17 06:40:29;;;;;;;5.50;1.08;;;1.10;99.90;;;;;;5070868;28;20040;-47
2023/01/17 06:43:04;;;;;;;5.50;0.80;;;1.00;99.90;;;;;;5074212;28;20377;-50
2023/01/17 06:45:32;;;;;;;8.18;0.77;;;0.90;99.90;;;;;;5072612;28;20361;-47
2023/01/17 06:48:03;;;;;;;6.03;1.00;;;0.90;99.90;;;;;;5072242;28;20582;-50
2023/01/17 06:50:30;;;;;;;8.55;2.13;;;0.70;99.90;;;;;;5071620;28;20057;-51
2023/01/17 06:52:58;;;;;;;3.63;0.80;;;1.00;99.90;;;;;;5072122;28;20036;-46
2023/01/17 06:55:27;;;;;;;6.13;0.90;;;0.60;99.90;;;;;;5077356;28;20044;-50
2023/01/17 06:57:58;;;;;;;5.03;0.88;;;0.60;99.90;;;;;;5072122;28;20194;-50
2023/01/17 07:00:25;;;;;;;3.95;0.95;;;0.60;99.90;;;;;;5072322;28;20041;-50
2023/01/17 07:02:51;;;;;;;4.85;0.77;;;0.70;99.90;;;;;;5071447;28;20141;-45
2023/01/17 07:05:18;;;;;;;3.58;0.70;;;0.60;99.90;;;;;;5072223;28;20442;-46
2023/01/17 07:07:45;;;;;;;5.38;0.60;;;0.60;99.90;;;;;;5071618;28;20040;-46
2023/01/17 07:10:12;;;;;;;5.60;0.60;;;0.60;99.90;;;;;;5071743;28;20047;-47
2023/01/17 07:12:38;;;;;;;5.22;0.63;;;0.40;99.90;;;;;;5071287;28;20044;-48
2023/01/17 07:15:05;;;;;;;4.63;1.15;;;0.40;99.90;;;;;;5071534;28;20044;-49
2023/01/17 07:17:31;;;;;;;1.80;0.60;;;0.40;99.90;;;;;;5053589;28;20098;-46
2023/01/17 07:19:56;;;;;;;4.47;1.08;;;0.70;99.90;;;;;;5071469;28;20048;-48
2023/01/17 07:22:22;;;;;;;5.07;0.60;;;0.60;99.90;;;;;;5069704;28;20443;-47
2023/01/17 07:24:48;;;;;;;1.08;0.50;;;0.50;99.90;;;;;;5070146;28;20067;-50
2023/01/17 07:27:13;;;;;;;5.10;0.73;;;0.70;99.90;;;;;;5071533;28;20043;-50
2023/01/17 07:29:39;;;;;;;2.63;0.82;;;0.80;99.90;;;;;;5070223;28;20051;-48
2023/01/17 07:32:07;;;;;;;5.13;0.80;;;0.50;99.90;;;;;;5071676;28;20824;-50
2023/01/17 07:34:33;;;;;;;5.28;0.60;;;0.70;99.90;;;;;;5071344;28;20044;-48
2023/01/17 07:36:59;;;;;;;2.75;0.70;;;0.60;99.90;;;;;;5070404;28;20032;-51
2023/01/17 07:39:25;;;;;;;5.10;0.80;;;0.80;99.90;;;;;;5071342;28;20036;-48
2023/01/17 07:41:51;;;;;;;3.88;0.68;;;2.40;99.90;;;;;;5071195;28;20507;-50
2023/01/17 07:44:16;;;;;;;3.85;0.90;;;0.70;99.90;;;;;;5071247;28;20048;-50
2023/01/17 07:46:42;;;;;;;4.10;0.68;;;0.60;99.90;;;;;;5071547;28;20040;-49
2023/01/17 07:49:08;;;;;;;4.60;0.77;;;0.60;99.90;;;;;;5070542;28;20087;-48
2023/01/17 07:51:33;;;;;;;7.20;1.00;;;0.30;99.90;;;;;;5070778;28;20040;-49
2023/01/17 07:53:59;;;;;;;10.52;1.00;;;0.30;99.90;;;;;;5069709;28;20036;-46
2023/01/17 07:56:25;;;;;;;5.22;1.00;;;0.60;99.90;;;;;;5071225;28;20033;-46
2023/01/17 07:58:50;;;;;;;5.85;0.90;;;0.30;99.90;;;;;;5070892;28;20124;-49
2023/01/17 08:01:16;;;;;;;6.70;0.93;;;0.60;99.90;;;;;;5070763;28;20059;-46
2023/01/17 08:03:42;;;;;;;5.50;1.25;;;0.50;99.90;;;;;;5066988;28;20048;-51
2023/01/17 08:06:23;;;;;;;7.20;1.52;;;0.30;99.90;;;;;;5063753;28;20109;-48
2023/01/17 08:08:49;;;;;;;7.00;1.70;;;0.30;99.90;;;;;;5068836;28;20476;-48
2023/01/17 08:11:15;;;;;;;5.20;1.40;;;0.60;99.90;;;;;;5069233;28;20040;-48
2023/01/17 08:13:41;;;;;;;9.55;1.92;;;0.30;99.90;;;;;;5070650;28;20036;-51
2023/01/17 08:16:09;;;;;;;7.43;1.80;;;0.30;99.90;;;;;;5062074;28;20391;-50
2023/01/17 08:18:35;;;;;;;6.05;2.03;;;0.60;99.90;;;;;;5056538;28;20049;-48
2023/01/17 08:21:01;;;;;;;10.00;1.85;;;0.40;99.90;;;;;;5060856;28;20039;-47
2023/01/17 08:23:27;;;;;;;7.07;2.20;;;0.90;99.90;;;;;;5060931;28;20028;-49
2023/01/17 08:25:52;;;;;;;13.20;2.20;;;0.20;99.90;;;;;;5062507;28;20498;-49
2023/01/17 08:28:18;;;;;;;6.88;1.80;;;0.40;99.90;;;;;;5063626;28;20032;-49
2023/01/17 08:30:45;;;;;;;6.32;1.75;;;0.60;99.90;;;;;;5061542;28;20056;-52
2023/01/17 08:33:10;;;;;;;13.32;2.33;;;0.70;99.90;;;;;;5060366;28;20059;-47
2023/01/17 08:35:36;;;;;;;6.97;1.90;;;0.90;99.90;;;;;;5061811;28;20485;-48
2023/01/17 08:38:04;;;;;;;8.75;1.85;;;0.60;99.90;;;;;;5059681;28;20032;-48
2023/01/17 08:40:33;;;;;;;9.20;1.75;;;0.60;99.90;;;;;;5061157;28;20041;-47
2023/01/17 08:43:00;;;;;;;7.30;2.17;;;0.30;99.90;;;;;;5059705;28;20033;-47
2023/01/17 08:45:27;;;;;;;6.25;1.63;;;0.20;99.90;;;;;;5058548;28;20033;-49
2023/01/17 08:47:53;;;;;;;8.32;1.75;;;0.60;99.90;;;;;;5048167;28;20076;-47
2023/01/17 08:50:23;;;;;;;6.55;1.90;;;0.40;99.90;;;;;;5050922;28;20095;-47
2023/01/17 08:52:49;;;;;;;7.88;1.65;;;0.40;99.90;;;;;;5052049;28;20379;-45
2023/01/17 08:55:15;;;;;;;7.30;1.67;;;0.40;99.90;;;;;;5050537;28;20048;-52
2023/01/17 08:57:41;;;;;;;7.45;1.70;;;0.50;99.90;;;;;;5052725;28;20029;-48
2023/01/17 09:00:08;;;;;;;12.73;2.20;;;0.30;99.90;;;;;;5051270;28;20047;-47
2023/01/17 09:02:35;;;;;;;5.68;1.83;;;0.80;99.90;;;;;;5057369;28;20043;-47
2023/01/17 09:05:01;;;;;;;9.82;1.88;;;0.40;99.90;;;;;;5060399;28;20346;-47
2023/01/17 09:07:27;;;;;;;8.43;1.77;;;0.50;99.90;;;;;;5058853;28;20045;-48
2023/01/17 09:09:53;;;;;;;7.45;1.85;;;0.70;99.90;;;;;;5059218;28;20052;-49
2023/01/17 09:12:21;;;;;;;8.35;1.77;;;0.50;99.90;;;;;;5060036;28;20040;-47
2023/01/17 09:14:47;;;;;;;7.55;1.80;;;0.80;99.90;;;;;;5060137;28;20036;-47
2023/01/17 09:17:13;;;;;;;7.47;2.05;;;0.60;99.90;;;;;;5059017;28;20064;-50
2023/01/17 09:19:42;;;;;;;6.68;1.70;;;0.80;99.90;;;;;;5060047;28;20525;-51
2023/01/17 09:22:08;;;;;;;7.00;2.00;;;0.80;99.90;;;;;;5042535;28;20040;-47
2023/01/17 09:24:34;;;;;;;11.02;1.92;;;0.70;99.90;;;;;;5059124;28;20102;-48
2023/01/17 09:27:00;;;;;;;12.95;2.20;;;1.20;99.90;;;;;;5058634;28;20082;-48
2023/01/17 09:29:26;;;;;;;8.52;1.90;;;0.90;99.90;;;;;;5060550;28;20028;-47
2023/01/17 09:31:52;;;;;;;7.68;1.80;;;0.90;99.90;;;;;;5060851;28;20044;-47
2023/01/17 09:34:18;;;;;;;7.55;1.85;;;1.20;99.90;;;;;;5060725;28;20040;-46
2023/01/17 09:36:44;;;;;;;10.35;1.98;;;1.10;99.90;;;;;;5059572;28;20050;-51
2023/01/17 09:39:10;;;;;;;13.32;2.75;;;1.00;99.90;;;;;;5057774;28;20037;-51
2023/01/17 09:41:52;;;;;;;8.80;2.00;;;1.00;99.90;;;;;;5059384;28;20126;-49
2023/01/17 09:44:20;;;;;;;8.77;2.35;;;1.30;99.90;;;;;;5056900;28;20488;-48
2023/01/17 09:46:49;;;;;;;14.02;3.60;;;1.30;99.90;;;;;;5060503;28;20041;-49
2023/01/17 09:49:26;;;;;;;13.23;3.80;;;1.70;99.90;;;;;;5057858;28;20059;-50
2023/01/17 09:51:53;;;;;;;9.70;2.47;;;1.60;99.90;;;;;;5058689;28;20066;-49
2023/01/17 09:54:25;;;;;;;11.93;2.72;;;1.90;99.90;;;;;;5059646;28;20504;-49
2023/01/17 09:57:17;;;;;;;8.75;2.78;;;1.70;99.90;;;;;;5059679;28;20040;-50
2023/01/17 10:00:14;;;;;;;8.05;2.10;;;2.10;99.90;;;;;;5058781;28;20097;-49
2023/01/17 10:02:58;;;;;;;4.45;1.73;;;1.90;99.90;;;;;;5060783;28;20089;-51
2023/01/17 10:05:36;;;;;;;12.40;2.30;;;2.00;99.90;;;;;;5063071;28;20498;-48
2023/01/17 10:08:10;;;;;;;8.63;2.47;;;2.30;99.90;;;;;;5063116;28;20428;-48
2023/01/17 10:10:47;;;;;;;6.25;1.90;;;2.30;99.90;;;;;;5060921;28;20075;-50
2023/01/17 10:13:56;;;;;;;5.97;1.70;;;2.30;99.90;;;;;;5061302;28;20033;-46
2023/01/17 10:16:53;;;;;;;6.75;1.70;;;2.40;99.90;;;;;;5063916;28;21058;-47
2023/01/17 10:19:40;;;;;;;9.13;2.00;;;2.40;99.90;;;;;;5061586;28;20060;-48
2023/01/17 10:22:36;;;;;;;8.30;1.90;;;2.70;99.90;;;;;;5062075;28;20043;-46
2023/01/17 10:25:31;;;;;;;5.57;1.40;;;3.00;99.90;;;;;;5064198;28;20081;-49
2023/01/17 10:28:18;;;;;;;6.63;1.55;;;3.50;99.90;;;;;;5062841;28;20456;-49
2023/01/17 10:30:53;;;;;;;4.65;1.38;;;3.90;99.90;;;;;;5061063;28;20052;-50
2023/01/17 10:33:31;;;;;;;6.18;1.33;;;4.10;99.90;;;;;;5063963;28;20129;-48
2023/01/17 10:36:14;;;;;;;4.80;1.33;;;4.30;99.90;;;;;;5062829;28;20560;-46
2023/01/17 10:38:44;;;;;;;7.40;1.70;;;4.50;99.90;;;;;;5064642;28;20127;-48
2023/01/17 10:41:24;;;;;;;5.78;1.40;;;4.70;99.90;;;;;;5063916;28;20106;-46
2023/01/17 10:44:24;;;;;;;5.68;1.52;;;4.80;99.90;;;;;;5061983;28;20033;-48
2023/01/17 10:47:11;;;;;;;7.20;1.85;;;4.90;99.90;;;;;;5061931;28;20047;-47
2023/01/17 10:49:41;;;;;;;7.07;1.73;;;5.00;99.90;;;;;;5062404;28;20055;-45
2023/01/17 10:52:21;;;;;;;6.50;1.70;;;5.20;99.90;;;;;;5064305;28;20102;-46
2023/01/17 10:55:05;;;;;;;4.22;1.30;;;5.30;99.90;;;;;;5061240;28;20045;-46
2023/01/17 10:57:49;;;;;;;7.47;1.58;;;5.60;99.90;;;;;;5062698;28;20086;-46
2023/01/17 11:00:24;;;;;;;5.60;1.85;;;5.40;99.90;;;;;;5067997;28;20469;-47
2023/01/17 11:02:50;;;;;;;6.03;1.70;;;5.50;99.90;;;;;;5069651;28;20040;-46
2023/01/17 11:05:29;;;;;;;4.10;1.30;;;5.50;99.90;;;;;;5070848;28;20040;-50
2023/01/17 11:08:09;;;;;;;6.35;1.50;;;5.50;99.90;;;;;;5072676;28;20041;-46
2023/01/17 11:10:38;;;;;;;5.30;1.70;;;5.50;99.90;;;;;;5071464;28;20097;-46
2023/01/17 11:13:20;;;;;;;7.68;1.63;;;5.20;99.90;;;;;;5072162;28;20108;-46
2023/01/17 11:16:01;;;;;;;8.10;2.10;;;5.40;99.90;;;;;;5071536;28;20123;-48
2023/01/17 11:18:29;;;;;;;4.35;1.90;;;5.10;99.90;;;;;;5071959;28;20040;-49
2023/01/17 11:21:13;;;;;;;5.18;1.98;;;5.00;99.90;;;;;;5071557;28;20044;-46
2023/01/17 11:23:49;;;;;;;5.82;1.80;;;5.20;99.90;;;;;;5083962;28;20120;-47
2023/01/17 11:26:27;;;;;;;6.85;1.67;;;5.30;99.90;;;;;;5071425;28;20037;-46
2023/01/17 11:29:24;;;;;;;6.68;1.70;;;5.20;99.90;;;;;;5080397;28;20044;-46
2023/01/17 11:31:50;;;;;;;6.53;1.70;;;5.40;99.90;;;;;;5071474;28;20044;-48
2023/01/17 11:34:21;;;;;;;5.95;2.08;;;5.60;99.90;;;;;;5071555;28;20063;-48
2023/01/17 11:36:48;;;;;;;6.50;1.75;;;5.80;99.90;;;;;;5071534;28;20071;-46
2023/01/17 11:39:16;;;;;;;4.53;1.55;;;6.10;99.90;;;;;;5071508;28;20396;-48
2023/01/17 11:41:43;;;;;;;8.85;1.67;;;6.30;99.90;;;;;;5070775;28;20036;-47
2023/01/17 11:44:25;;;;;;;7.70;1.98;;;6.50;99.90;;;;;;5071330;28;20056;-46
2023/01/17 11:47:12;;;;;;;6.00;1.63;;;6.50;99.90;;;;;;5070142;28;20131;-46
2023/01/17 11:49:48;;;;;;;5.63;1.80;;;6.70;99.90;;;;;;5069373;28;20143;-48
2023/01/17 11:52:23;;;;;;;8.90;1.90;;;6.20;99.90;;;;;;5069700;28;20119;-46
2023/01/17 11:54:51;;;;;;;6.35;1.75;;;6.10;99.90;;;;;;5071128;28;20036;-48
2023/01/17 11:57:22;;;;;;;5.93;2.00;;;6.40;99.90;;;;;;5063787;28;20475;-48
2023/01/17 11:59:49;;;;;;;4.80;1.80;;;6.60;99.90;;;;;;5073078;28;20093;-46
2023/01/17 12:02:36;;;;;;;6.55;1.65;;;6.50;99.90;;;;;;5070749;28;20032;-45
2023/01/17 12:05:32;;;;;;;5.18;2.00;;;6.40;99.90;;;;;;5077783;28;20472;-46
2023/01/17 12:08:06;;;;;;;13.40;4.47;;;6.60;99.90;;;;;;5071053;28;20101;-46
2023/01/17 12:10:46;;;;;;;7.85;1.98;;;6.60;99.90;;;;;;5049399;28;20051;-47
2023/01/17 12:13:59;;;;;;;5.40;1.60;;;6.80;99.90;;;;;;5059205;28;20041;-48
2023/01/17 12:16:45;;;;;;;5.03;1.70;;;6.50;99.90;;;;;;5046507;28;20172;-50
2023/01/17 12:19:17;;;;;;;8.50;1.63;;;6.50;99.90;;;;;;5059216;28;20393;-46
2023/01/17 12:22:13;;;;;;;6.38;1.70;;;6.50;99.90;;;;;;5056532;28;20040;-47
2023/01/17 12:25:05;;;;;;;7.13;1.83;;;6.50;99.90;;;;;;5056715;28;20033;-49
2023/01/17 12:27:56;;;;;;;5.78;1.70;;;6.60;99.90;;;;;;5054954;28;20045;-46
2023/01/17 12:30:26;;;;;;;10.15;2.05;;;6.40;99.90;;;;;;5060202;28;20150;-46
2023/01/17 12:33:18;;;;;;;6.55;1.40;;;6.50;99.90;;;;;;5057666;28;20500;-47
2023/01/17 12:35:55;;;;;;;5.22;1.20;;;6.40;99.90;;;;;;5058408;28;20527;-46
2023/01/17 12:38:31;;;;;;;4.75;1.20;;;6.30;99.90;;;;;;5056879;28;20040;-48
2023/01/17 12:41:22;;;;;;;5.82;1.30;;;6.60;99.90;;;;;;5059241;28;20079;-46
2023/01/17 12:43:52;;;;;;;4.88;1.42;;;6.50;99.90;;;;;;5058257;28;20036;-48
2023/01/17 12:46:41;;;;;;;8.63;1.92;;;6.70;99.90;;;;;;5058071;28;20039;-48
2023/01/17 12:49:37;;;;;;;6.40;1.92;;;6.80;99.90;;;;;;5057475;28;20190;-50
2023/01/17 12:52:20;;;;;;;7.22;1.60;;;6.70;99.90;;;;;;5057231;28;20047;-52
2023/01/17 12:54:50;;;;;;;5.72;1.52;;;6.60;99.90;;;;;;5059239;28;20074;-51
2023/01/17 12:57:28;;;;;;;5.72;1.73;;;6.70;99.90;;;;;;5059418;28;20829;-50
2023/01/17 13:00:05;;;;;;;6.72;2.03;;;6.60;99.90;;;;;;5057508;28;20059;-51
2023/01/17 13:02:50;;;;;;;6.82;1.63;;;6.70;99.90;;;;;;5054836;28;20033;-50
2023/01/17 13:05:22;;;;;;;4.72;1.63;;;6.70;99.90;;;;;;5061007;28;20043;-48
2023/01/17 13:08:16;;;;;;;4.93;1.77;;;6.60;99.90;;;;;;5056485;28;20025;-49
2023/01/17 13:11:05;;;;;;;6.40;1.63;;;6.70;99.90;;;;;;5056731;28;20098;-48
2023/01/17 13:13:31;;;;;;;5.05;1.55;;;6.80;99.90;;;;;;5060840;28;20049;-50
2023/01/17 13:16:16;;;;;;;6.85;1.60;;;6.90;99.90;;;;;;5059940;28;20025;-47
2023/01/17 13:18:46;;;;;;;;;;;6.80;99.90;;;;;;5061805;28;20401;-49
2023/01/17 13:21:20;;;;;;;4.22;1.35;;;6.80;99.90;;;;;;5058860;28;19962;-48
2023/01/17 13:24:21;;;;;;;4.70;1.45;;;7.00;99.90;;;;;;5060314;28;20451;-48
2023/01/17 13:27:08;;;;;;;8.13;1.15;;;6.90;99.90;;;;;;5057826;28;20823;-47
2023/01/17 13:29:37;;;;;;;4.47;1.05;;;6.90;99.90;;;;;;5058695;28;20059;-47
2023/01/17 13:32:14;;;;;;;5.35;1.38;;;7.00;99.90;;;;;;5060204;28;20761;-47
2023/01/17 13:34:53;;;;;;;3.53;1.10;;;6.90;99.90;;;;;;5063491;28;20055;-48
2023/01/17 13:37:48;;;;;;;4.28;1.10;;;6.90;99.90;;;;;;5065378;28;20036;-52
2023/01/17 13:40:38;;;;;;;5.80;1.05;;;6.90;99.90;;;;;;4994164;28;20050;-47
2023/01/17 13:43:12;;;;;;;4.50;1.17;;;7.00;99.90;;;;;;5063040;28;20044;-48
2023/01/17 13:45:38;;;;;;;6.55;1.30;;;7.20;99.90;;;;;;5063877;28;20040;-48
2023/01/17 13:48:13;;;;;;;5.82;1.90;;;7.10;99.90;;;;;;5063637;28;20484;-46
2023/01/17 13:50:51;;;;;;;6.43;1.60;;;7.20;99.90;;;;;;5062171;28;20052;-49
2023/01/17 13:53:38;;;;;;;5.72;1.33;;;7.00;99.90;;;;;;5061891;28;20044;-50
2023/01/17 13:56:26;;;;;;;4.80;1.30;;;7.20;99.90;;;;;;5064883;28;20040;-48
2023/01/17 13:58:56;;;;;;;7.82;1.77;;;7.20;99.90;;;;;;5062807;28;20127;-48
2023/01/17 14:01:22;;;;;;;6.05;1.20;;;6.80;99.90;;;;;;5078477;28;20048;-47
2023/01/17 14:03:50;;;;;;;5.60;1.20;;;6.70;99.90;;;;;;5062457;28;20464;-50
2023/01/17 14:06:34;;;;;;;8.07;1.60;;;6.60;99.90;;;;;;5062891;28;20040;-49
2023/01/17 14:09:12;;;;;;;8.00;1.63;;;6.30;99.90;;;;;;5064534;28;20040;-47
2023/01/17 14:11:55;;;;;;;5.70;1.73;;;6.00;99.90;;;;;;5061414;28;20044;-46
2023/01/17 14:14:40;;;;;;;5.18;1.52;;;5.90;99.90;;;;;;5061536;28;20502;-47
2023/01/17 14:17:15;;;;;;;6.97;1.60;;;6.00;99.90;;;;;;5063675;28;20114;-46
2023/01/17 14:19:47;;;;;;;8.23;1.60;;;5.90;99.90;;;;;;5064363;28;20040;-45
2023/01/17 14:22:18;;;;;;;5.55;1.20;;;5.60;99.90;;;;;;5061929;28;20063;-49
2023/01/17 14:25:18;;;;;;;5.55;1.33;;;5.50;99.90;;;;;;5060130;28;20043;-48
2023/01/17 14:28:00;;;;;;;5.38;1.20;;;5.40;99.90;;;;;;5051232;28;20044;-48
2023/01/17 14:30:33;;;;;;;3.55;1.10;;;5.40;99.90;;;;;;5062085;28;20036;-47
2023/01/17 14:33:07;;;;;;;3.22;1.30;;;5.30;99.90;;;;;;5060580;28;20043;-47
2023/01/17 14:35:47;;;;;;;6.22;1.70;;;5.20;99.90;;;;;;5060357;28;20035;-50
2023/01/17 14:38:25;;;;;;;7.03;1.52;;;5.10;99.90;;;;;;5058244;28;20120;-49
2023/01/17 14:41:10;;;;;;;3.80;1.42;;;5.00;99.90;;;;;;5063169;28;20037;-50
2023/01/17 14:43:40;;;;;;;3.55;1.17;;;5.00;99.90;;;;;;5060719;28;20690;-51
2023/01/17 14:46:22;;;;;;;3.20;1.40;;;4.90;99.90;;;;;;5055979;28;20104;-50
2023/01/17 14:48:48;;;;;;;6.78;1.67;;;4.80;99.90;;;;;;5054902;28;20045;-48